Ana Sayfa
METAR-TAF:

METAR-TAF

Havaalanları :

Pekanbaru, Endonezya

Enlem: 00-28N, Boylam: 101-27E, yükseklik: 31 m

Güncel hava durumu gözlemi

Rapor saat 02:00 UTC de 17 saat ve 42 dakika önce yapıldı.
Sakin rüzgar
Sıcaklık 27°C
Nem 79%
Basınç 1013 hPa
Görüş mesafesi 10 km veya daha fazla
900 ft yükseklikte az bulutlu

METAR: WIBB 190200Z 00000KT 9999 FEW009 27/23 Q1013

Saat: 02:42 (19:42 UTC)


TAF: eksik

4.000'den fazla havaalanı için hava durumu gözlemleri ve tahminleri (METAR ve TAF raporları).

Kullanılabilir istasyonlar harita üzerinde sarı ve kırmızı noktalarla gösterilir.

İstasyonun adını görmek için fareyi noktanın üzerinde gezdirin.

Sonrasında hava gözlem ve tahminlerini görmek için tıklayın.

Haritayı değiştirmek için: yaklaştırmak için siyah artı işaretli yeşil düğmeye ve uzaklaştırmak için de eksi işaretli düğmeye hızla tıklayın; bitişik haritalar için yeşil okları kullanın.


METAR-TAF: